Time;durP1;ratioP1;P1;durP2;ratioP2;P2;SDS_P1;SDS_P2;PMS_P1;PMS_P2;Temp;Humidity;BMP_temperature;BMP_pressure;BME280_temperature;BME280_humidity;BME280_pressure;Samples;Min_cycle;Max_cycle;Signal;HPM_P1;HPM_P2
2021/11/01 00:00:13;;;;;;;11.40;2.05;;;;;;;;;;5075387;28;20027;-69
2021/11/01 00:02:40;;;;;;;10.50;2.45;;;;;;;;;;5074419;28;20479;-69
2021/11/01 00:05:07;;;;;;;8.57;1.98;;;;;;;;;;5075756;28;20033;-67
2021/11/01 00:07:33;;;;;;;14.63;2.90;;;;;;;;;;5074109;28;20044;-67
2021/11/01 00:09:59;;;;;;;11.65;1.98;;;;;;;;;;5075831;28;20031;-67
2021/11/01 00:12:29;;;;;;;14.20;1.80;;;;;;;;;;5075727;28;20025;-69
2021/11/01 00:14:56;;;;;;;12.75;2.70;;;;;;;;;;5075172;28;20024;-67
2021/11/01 00:17:22;;;;;;;8.77;2.35;;;;;;;;;;5074386;28;20054;-68
2021/11/01 00:19:48;;;;;;;7.80;1.85;;;;;;;;;;5075538;28;20112;-68
2021/11/01 00:22:14;;;;;;;9.57;1.80;;;;;;;;;;5074191;28;20061;-68
2021/11/01 00:24:40;;;;;;;11.20;1.90;;;;;;;;;;5073844;28;20024;-66
2021/11/01 00:27:06;;;;;;;8.95;1.85;;;;;;;;;;5073961;28;20033;-67
2021/11/01 00:29:32;;;;;;;11.60;2.40;;;;;;;;;;5075484;28;20434;-67
2021/11/01 00:31:58;;;;;;;8.23;2.05;;;;;;;;;;5073509;28;20027;-68
2021/11/01 00:34:24;;;;;;;11.00;1.70;;;;;;;;;;5073825;28;20732;-69
2021/11/01 00:36:53;;;;;;;7.88;1.77;;;;;;;;;;5074673;28;20070;-69
2021/11/01 00:39:19;;;;;;;11.90;2.30;;;;;;;;;;5074940;28;20024;-68
2021/11/01 00:41:44;;;;;;;4.80;1.70;;;;;;;;;;5075068;28;20029;-67
2021/11/01 00:44:10;;;;;;;7.78;1.90;;;;;;;;;;5075177;28;20028;-67
2021/11/01 00:46:37;;;;;;;8.07;1.92;;;;;;;;;;5074118;28;20028;-67
2021/11/01 00:49:04;;;;;;;9.25;1.90;;;;;;;;;;5074575;28;20399;-69
2021/11/01 00:51:30;;;;;;;7.90;1.50;;;;;;;;;;5074464;28;20021;-68
2021/11/01 00:53:56;;;;;;;11.23;2.05;;;;;;;;;;5075199;28;20032;-67
2021/11/01 00:56:22;;;;;;;10.73;1.80;;;;;;;;;;5074599;28;20412;-69
2021/11/01 00:58:48;;;;;;;7.45;1.63;;;;;;;;;;5074474;28;20445;-67
2021/11/01 01:01:15;;;;;;;11.27;1.70;;;;;;;;;;5073577;28;20523;-67
2021/11/01 01:03:43;;;;;;;12.88;1.88;;;;;;;;;;5074288;28;20120;-66
2021/11/01 01:06:09;;;;;;;9.00;2.00;;;;;;;;;;5072031;28;20043;-68
2021/11/01 01:08:35;;;;;;;10.27;1.73;;;;;;;;;;5072797;28;20056;-68
2021/11/01 01:11:01;;;;;;;8.60;1.80;;;;;;;;;;5074277;28;20016;-67
2021/11/01 01:13:34;;;;;;;9.60;1.85;;;;;;;;;;5074413;28;20059;-68
2021/11/01 01:18:37;;;;;;;7.07;1.70;;;;;;;;;;5073181;28;20027;-68
2021/11/01 01:22:12;;;;;;;7.35;1.80;;;;;;;;;;5073997;28;20017;-68
2021/11/01 01:23:49;;;;;;;6.97;1.70;;;;;;;;;;5073981;28;20493;-68
2021/11/01 01:26:16;;;;;;;7.97;1.55;;;;;;;;;;5073903;28;20024;-69
2021/11/01 01:28:42;;;;;;;6.55;1.80;;;;;;;;;;5074044;28;20398;-67
2021/11/01 01:31:08;;;;;;;6.03;1.38;;;;;;;;;;5074031;28;20546;-68
2021/11/01 01:33:35;;;;;;;10.98;1.42;;;;;;;;;;5073861;28;20035;-67
2021/11/01 01:36:01;;;;;;;5.80;1.58;;;;;;;;;;5073785;28;20036;-67
2021/11/01 01:38:26;;;;;;;8.02;1.63;;;;;;;;;;5073838;28;20033;-69
2021/11/01 01:40:54;;;;;;;11.98;1.60;;;;;;;;;;5073210;28;20087;-70
2021/11/01 01:43:20;;;;;;;8.80;1.80;;;;;;;;;;5073802;28;20154;-67
2021/11/01 01:45:46;;;;;;;12.13;1.73;;;;;;;;;;5073375;28;20487;-68
2021/11/01 01:48:13;;;;;;;6.97;1.40;;;;;;;;;;5073416;28;20552;-68
2021/11/01 01:50:39;;;;;;;6.63;1.40;;;;;;;;;;5073893;28;20020;-69
2021/11/01 01:53:06;;;;;;;4.32;1.25;;;;;;;;;;5073668;28;20021;-68
2021/11/01 01:55:32;;;;;;;6.78;1.40;;;;;;;;;;5072417;28;20032;-68
2021/11/01 01:57:58;;;;;;;7.55;1.98;;;;;;;;;;5072447;28;20082;-70
2021/11/01 02:00:46;;;;;;;10.52;1.80;;;;;;;;;;5073398;28;20440;-69
2021/11/01 02:03:12;;;;;;;7.22;1.33;;;;;;;;;;5073222;28;20020;-69
2021/11/01 02:05:42;;;;;;;8.88;1.85;;;;;;;;;;5073325;28;20040;-70
2021/11/01 02:08:09;;;;;;;8.02;1.70;;;;;;;;;;5071831;28;20135;-69
2021/11/01 02:10:41;;;;;;;5.25;1.40;;;;;;;;;;5073831;28;20083;-69
2021/11/01 02:13:13;;;;;;;6.28;1.58;;;;;;;;;;5073528;28;20525;-69
2021/11/01 02:15:41;;;;;;;4.85;1.35;;;;;;;;;;5073426;28;20024;-67
2021/11/01 02:18:08;;;;;;;3.83;1.30;;;;;;;;;;5073125;28;20101;-69
2021/11/01 02:20:39;;;;;;;9.93;1.65;;;;;;;;;;5072832;28;20086;-69
2021/11/01 02:23:11;;;;;;;7.78;1.33;;;;;;;;;;5073375;28;20028;-70
2021/11/01 02:25:40;;;;;;;6.07;1.30;;;;;;;;;;5073567;28;20119;-69
2021/11/01 02:28:08;;;;;;;5.53;1.38;;;;;;;;;;5073569;28;20040;-68
2021/11/01 02:30:35;;;;;;;14.32;1.50;;;;;;;;;;5073160;28;20021;-67
2021/11/01 02:33:01;;;;;;;4.75;1.33;;;;;;;;;;5071982;28;20025;-68
2021/11/01 02:35:28;;;;;;;15.35;1.73;;;;;;;;;;5073363;28;20092;-70
2021/11/01 02:37:54;;;;;;;10.20;1.40;;;;;;;;;;5073441;28;20024;-68
2021/11/01 02:40:25;;;;;;;8.20;1.55;;;;;;;;;;5071570;28;20021;-69
2021/11/01 02:42:51;;;;;;;7.22;1.20;;;;;;;;;;5071566;28;20037;-67
2021/11/01 02:45:18;;;;;;;6.30;1.48;;;;;;;;;;5072883;28;20510;-68
2021/11/01 02:47:44;;;;;;;6.13;1.48;;;;;;;;;;5070762;28;20050;-67
2021/11/01 02:50:11;;;;;;;6.43;1.38;;;;;;;;;;5073127;28;20032;-68
2021/11/01 02:52:38;;;;;;;6.38;1.35;;;;;;;;;;5073112;28;20033;-68
2021/11/01 02:55:06;;;;;;;5.57;1.25;;;;;;;;;;5072036;28;20479;-68
2021/11/01 02:57:32;;;;;;;8.90;1.38;;;;;;;;;;5072998;28;20391;-68
2021/11/01 02:59:58;;;;;;;8.38;1.60;;;;;;;;;;5072882;28;20070;-69
2021/11/01 03:02:24;;;;;;;4.88;1.40;;;;;;;;;;5072767;28;20538;-68
2021/11/01 03:04:50;;;;;;;6.00;1.40;;;;;;;;;;5073009;28;20035;-69
2021/11/01 03:07:17;;;;;;;9.02;1.73;;;;;;;;;;5069984;28;20037;-67
2021/11/01 03:09:47;;;;;;;7.20;1.25;;;;;;;;;;5071519;28;20028;-69
2021/11/01 03:12:16;;;;;;;3.88;1.20;;;;;;;;;;5073122;28;20012;-67
2021/11/01 03:14:51;;;;;;;4.53;1.02;;;;;;;;;;5073264;28;20027;-69
2021/11/01 03:17:21;;;;;;;7.10;1.27;;;;;;;;;;5072180;28;20399;-68
2021/11/01 03:19:50;;;;;;;6.90;1.33;;;;;;;;;;5071314;28;20062;-68
2021/11/01 03:22:17;;;;;;;6.65;1.33;;;;;;;;;;5071630;28;20566;-67
2021/11/01 03:24:46;;;;;;;6.90;1.38;;;;;;;;;;5072602;28;20467;-69
2021/11/01 03:27:16;;;;;;;5.22;1.48;;;;;;;;;;5071100;28;20065;-67
2021/11/01 03:29:42;;;;;;;5.65;1.48;;;;;;;;;;5072874;28;20039;-67
2021/11/01 03:32:09;;;;;;;10.88;1.50;;;;;;;;;;5075055;28;20033;-69
2021/11/01 03:34:36;;;;;;;6.97;1.30;;;;;;;;;;5076294;28;20452;-67
2021/11/01 03:37:10;;;;;;;6.60;1.48;;;;;;;;;;5074881;28;20021;-67
2021/11/01 03:39:38;;;;;;;4.75;1.17;;;;;;;;;;5076430;28;20024;-66
2021/11/01 03:42:05;;;;;;;6.72;1.40;;;;;;;;;;5076156;28;20032;-66
2021/11/01 03:44:33;;;;;;;4.57;1.00;;;;;;;;;;5074949;28;20060;-68
2021/11/01 03:47:03;;;;;;;8.65;1.40;;;;;;;;;;5075598;28;20111;-67
2021/11/01 03:49:30;;;;;;;5.00;1.27;;;;;;;;;;5076089;28;20077;-67
2021/11/01 03:52:16;;;;;;;8.00;1.17;;;;;;;;;;5075562;28;20389;-67
2021/11/01 03:54:43;;;;;;;11.73;1.40;;;;;;;;;;5076044;28;20052;-66
2021/11/01 03:57:10;;;;;;;7.68;1.30;;;;;;;;;;5075533;28;20020;-67
2021/11/01 03:59:37;;;;;;;6.55;1.30;;;;;;;;;;5075879;28;20074;-68
2021/11/01 04:02:03;;;;;;;8.45;1.30;;;;;;;;;;5075741;28;20444;-68
2021/11/01 04:04:29;;;;;;;10.15;1.45;;;;;;;;;;5075591;28;20028;-67
2021/11/01 04:06:57;;;;;;;5.68;1.38;;;;;;;;;;5073450;28;20029;-67
2021/11/01 04:09:23;;;;;;;8.07;1.50;;;;;;;;;;5074887;28;20048;-68
2021/11/01 04:11:50;;;;;;;6.80;1.13;;;;;;;;;;5075177;28;20039;-68
2021/11/01 04:14:21;;;;;;;6.45;1.20;;;;;;;;;;5075583;28;20383;-69
2021/11/01 04:16:48;;;;;;;8.27;1.30;;;;;;;;;;5055564;28;20104;-68
2021/11/01 04:21:42;;;;;;;5.65;1.23;;;;;;;;;;5055471;28;20037;-67
2021/11/01 04:24:08;;;;;;;3.78;1.02;;;;;;;;;;5070487;28;20021;-67
2021/11/01 04:26:34;;;;;;;9.40;1.30;;;;;;;;;;5055288;28;20031;-67
2021/11/01 04:29:05;;;;;;;10.18;1.40;;;;;;;;;;5053980;28;20072;-68
2021/11/01 04:31:40;;;;;;;5.85;1.17;;;;;;;;;;5070357;28;20025;-68
2021/11/01 04:34:16;;;;;;;4.43;1.13;;;;;;;;;;5054987;28;20052;-70
2021/11/01 04:36:42;;;;;;;8.65;1.05;;;;;;;;;;5070865;28;20055;-69
2021/11/01 04:54:56;;;;;;;9.18;1.10;;;;;;;;;;5074695;28;20035;-68
2021/11/01 04:57:22;;;;;;;7.60;1.10;;;;;;;;;;5074938;28;20032;-68
2021/11/01 04:59:50;;;;;;;7.05;1.40;;;;;;;;;;5073610;28;20099;-66
2021/11/01 05:02:17;;;;;;;6.50;1.40;;;;;;;;;;5074743;28;20091;-68
2021/11/01 05:04:45;;;;;;;7.72;1.08;;;;;;;;;;5074641;28;20467;-68
2021/11/01 05:07:11;;;;;;;5.78;1.13;;;;;;;;;;5074022;28;20020;-68
2021/11/01 05:09:54;;;;;;;5.72;1.05;;;;;;;;;;5073859;28;20051;-67
2021/11/01 05:17:28;;;;;;;10.00;1.00;;;;;;;;;;5074497;28;20112;-69
2021/11/01 05:20:06;;;;;;;13.52;1.55;;;;;;;;;;5074559;28;20050;-70
2021/11/01 05:22:47;;;;;;;7.82;1.17;;;;;;;;;;5073139;28;20021;-68
2021/11/01 05:25:19;;;;;;;11.77;1.40;;;;;;;;;;5072639;28;20036;-70
2021/11/01 05:35:54;;;;;;;10.30;1.58;;;;;;;;;;5067210;28;20035;-69
2021/11/01 05:38:20;;;;;;;11.52;1.48;;;;;;;;;;5072191;28;20395;-69
2021/11/01 05:40:46;;;;;;;18.67;2.03;;;;;;;;;;5074348;28;20475;-69
2021/11/01 05:43:12;;;;;;;9.45;1.80;;;;;;;;;;5074013;28;20020;-68
2021/11/01 05:45:38;;;;;;;12.90;1.50;;;;;;;;;;5073807;28;20024;-68
2021/11/01 05:48:05;;;;;;;31.75;2.15;;;;;;;;;;5073575;28;20033;-67
2021/11/01 05:50:32;;;;;;;31.67;2.15;;;;;;;;;;5073782;28;20028;-69
2021/11/01 05:52:59;;;;;;;19.63;2.08;;;;;;;;;;5072727;28;20024;-68
2021/11/01 06:15:52;;;;;;;8.50;1.55;;;;;;;;;;5073164;28;20029;-68
2021/11/01 06:18:18;;;;;;;14.05;1.58;;;;;;;;;;5073108;28;20036;-68
2021/11/01 06:20:44;;;;;;;10.52;1.67;;;;;;;;;;5073105;28;20032;-69
2021/11/01 06:23:10;;;;;;;14.88;1.33;;;;;;;;;;5072903;28;20028;-69
2021/11/01 06:25:38;;;;;;;17.83;2.00;;;;;;;;;;5071418;28;20017;-69
2021/11/01 06:28:04;;;;;;;20.77;1.98;;;;;;;;;;5073253;28;20060;-68
2021/11/01 06:30:34;;;;;;;12.82;1.60;;;;;;;;;;5073158;28;20130;-68
2021/11/01 06:57:23;;;;;;;15.90;2.03;;;;;;;;;;5072831;28;20024;-63
2021/11/01 07:19:05;;;;;;;10.38;1.70;;;;;;;;;;5074757;28;20043;-66
2021/11/01 07:38:01;;;;;;;12.20;1.55;;;;;;;;;;5074968;28;20047;-65
2021/11/01 08:22:44;;;;;;;7.28;1.17;;;;;;;;;;5074082;28;20116;-66
2021/11/01 08:36:43;;;;;;;6.25;1.35;;;;;;;;;;5073745;28;20094;-67
2021/11/01 08:44:36;;;;;;;6.75;1.48;;;;;;;;;;5072053;28;20048;-67
2021/11/01 08:47:27;;;;;;;3.30;0.90;;;;;;;;;;5073365;28;20029;-67
2021/11/01 09:03:47;;;;;;;4.03;1.10;;;;;;;;;;5073908;28;20071;-65
2021/11/01 09:20:16;;;;;;;6.18;1.20;;;;;;;;;;5072460;28;20515;-67
2021/11/01 09:26:11;;;;;;;6.03;1.13;;;;;;;;;;5073384;28;20158;-66
2021/11/01 09:36:48;;;;;;;4.80;1.23;;;;;;;;;;5071883;28;20078;-68
2021/11/01 09:41:44;;;;;;;4.68;1.00;;;;;;;;;;5069461;28;20075;-66
2021/11/01 09:44:14;;;;;;;6.20;1.00;;;;;;;;;;5073133;28;20020;-67
2021/11/01 09:46:40;;;;;;;5.13;1.20;;;;;;;;;;5071188;28;20055;-66
2021/11/01 09:51:35;;;;;;;4.43;1.10;;;;;;;;;;5071833;28;20086;-66
2021/11/01 09:54:01;;;;;;;6.05;1.00;;;;;;;;;;5072822;28;20448;-66
2021/11/01 09:56:41;;;;;;;2.97;0.90;;;;;;;;;;5072421;28;20051;-67
2021/11/01 09:59:11;;;;;;;3.28;0.80;;;;;;;;;;5072582;28;20043;-67
2021/11/01 10:01:37;;;;;;;4.30;1.00;;;;;;;;;;5071584;28;20383;-67
2021/11/01 10:04:03;;;;;;;3.00;0.80;;;;;;;;;;5072735;28;20021;-67
2021/11/01 10:06:31;;;;;;;3.90;1.20;;;;;;;;;;5072565;28;20549;-68
2021/11/01 10:08:58;;;;;;;2.92;0.80;;;;;;;;;;5072207;28;20045;-67
2021/11/01 10:11:26;;;;;;;2.78;0.93;;;;;;;;;;5072589;28;20029;-67
2021/11/01 10:13:56;;;;;;;1.55;0.70;;;;;;;;;;5072513;28;20024;-67
2021/11/01 10:19:47;;;;;;;8.40;0.80;;;;;;;;;;5072555;28;20511;-66
2021/11/01 10:22:24;;;;;;;4.20;0.80;;;;;;;;;;5055531;28;20476;-66
2021/11/01 10:24:54;;;;;;;3.53;0.98;;;;;;;;;;5071381;28;20024;-66
2021/11/01 10:27:34;;;;;;;2.13;0.75;;;;;;;;;;5071286;28;20020;-66
2021/11/01 10:30:03;;;;;;;6.35;0.88;;;;;;;;;;5071979;28;20040;-66
2021/11/01 10:32:38;;;;;;;1.48;0.60;;;;;;;;;;5072212;28;20016;-70
2021/11/01 10:35:13;;;;;;;2.67;0.70;;;;;;;;;;5071484;28;20043;-66
2021/11/01 10:37:42;;;;;;;4.25;0.90;;;;;;;;;;5072699;28;20070;-66
2021/11/01 10:40:09;;;;;;;1.80;0.85;;;;;;;;;;5073136;28;20028;-66
2021/11/01 10:42:44;;;;;;;3.65;0.90;;;;;;;;;;5076852;28;20023;-66
2021/11/01 11:13:06;;;;;;;1.90;0.52;;;;;;;;;;5072806;28;20230;-68
2021/11/01 11:15:35;;;;;;;9.60;0.80;;;;;;;;;;5074978;28;20058;-69
2021/11/01 11:21:28;;;;;;;5.03;0.80;;;;;;;;;;5042571;28;20142;-68
2021/11/01 11:26:53;;;;;;;5.55;1.13;;;;;;;;;;5066426;28;20083;-66
2021/11/01 11:40:26;;;;;;;5.15;0.77;;;;;;;;;;5081364;28;20430;-66
2021/11/01 11:43:15;;;;;;;3.63;0.70;;;;;;;;;;5075471;28;20024;-66
2021/11/01 11:48:37;;;;;;;3.25;0.88;;;;;;;;;;5069961;28;20454;-68
2021/11/01 11:51:10;;;;;;;2.80;0.90;;;;;;;;;;5072797;28;20028;-67
2021/11/01 11:53:36;;;;;;;;;;;;;;;;;;5074524;28;20099;-67
2021/11/01 11:56:08;;;;;;;3.03;0.80;;;;;;;;;;5074442;28;19951;-66
2021/11/01 11:58:35;;;;;;;5.63;0.90;;;;;;;;;;5073450;28;20032;-64
2021/11/01 12:01:01;;;;;;;5.65;0.90;;;;;;;;;;5074326;28;20048;-64
2021/11/01 12:03:37;;;;;;;4.53;0.90;;;;;;;;;;5073458;28;20098;-66
2021/11/01 12:06:12;;;;;;;2.53;0.75;;;;;;;;;;5072562;28;20021;-65
2021/11/01 12:08:45;;;;;;;1.83;0.70;;;;;;;;;;5079784;28;20055;-65
2021/11/01 12:17:12;;;;;;;4.97;1.00;;;;;;;;;;5083067;28;20347;-67
2021/11/01 12:19:38;;;;;;;3.08;0.82;;;;;;;;;;5069238;28;20021;-65
2021/11/01 12:22:09;;;;;;;2.95;0.80;;;;;;;;;;5077157;28;20039;-65
2021/11/01 12:24:36;;;;;;;3.22;0.60;;;;;;;;;;5076066;28;20431;-65
2021/11/01 12:27:06;;;;;;;2.08;0.77;;;;;;;;;;5083993;28;20073;-65
2021/11/01 12:29:33;;;;;;;2.63;0.90;;;;;;;;;;5081857;28;20043;-66
2021/11/01 12:32:06;;;;;;;4.95;0.90;;;;;;;;;;5076699;28;20020;-66
2021/11/01 12:34:34;;;;;;;;;;;;;;;;;;5083316;28;20020;-67
2021/11/01 12:39:48;;;;;;;1.80;0.60;;;;;;;;;;5084592;28;20353;-68
2021/11/01 12:42:38;;;;;;;5.97;0.90;;;;;;;;;;5078848;28;20094;-66
2021/11/01 13:00:09;;;;;;;1.88;0.93;;;;;;;;;;5063295;28;20455;-66
2021/11/01 13:02:40;;;;;;;4.15;0.63;;;;;;;;;;5052746;28;20266;-66
2021/11/01 13:05:08;;;;;;;4.35;0.93;;;;;;;;;;5062270;28;20035;-66
2021/11/01 13:10:20;;;;;;;3.85;0.70;;;;;;;;;;5072636;28;20079;-67
2021/11/01 13:12:59;;;;;;;4.20;0.90;;;;;;;;;;5071586;28;20036;-66
2021/11/01 13:18:09;;;;;;;3.78;0.90;;;;;;;;;;5080081;28;20028;-66
2021/11/01 13:20:37;;;;;;;2.28;0.70;;;;;;;;;;5081628;28;20027;-65
2021/11/01 13:23:03;;;;;;;4.25;0.90;;;;;;;;;;5078934;28;20042;-64
2021/11/01 13:28:22;;;;;;;3.13;0.65;;;;;;;;;;5073666;28;20059;-65
2021/11/01 13:38:46;;;;;;;6.68;1.10;;;;;;;;;;5087417;28;20067;-66
2021/11/01 13:41:15;;;;;;;2.22;0.63;;;;;;;;;;5086257;28;20099;-66
2021/11/01 13:43:44;;;;;;;4.70;0.80;;;;;;;;;;5056309;28;20056;-66
2021/11/01 13:46:12;;;;;;;6.18;0.90;;;;;;;;;;5073514;28;20020;-66
2021/11/01 13:48:39;;;;;;;7.30;1.02;;;;;;;;;;5073358;28;20028;-65
2021/11/01 13:51:05;;;;;;;3.80;0.60;;;;;;;;;;5073437;28;20101;-65
2021/11/01 13:53:37;;;;;;;2.42;0.80;;;;;;;;;;5073789;28;20125;-65
2021/11/01 13:56:21;;;;;;;4.50;1.05;;;;;;;;;;5072929;28;20387;-66
2021/11/01 13:58:55;;;;;;;3.45;1.00;;;;;;;;;;5073725;28;20084;-65
2021/11/01 14:18:17;;;;;;;4.30;1.20;;;;;;;;;;5072841;28;20416;-65
2021/11/01 14:31:53;;;;;;;3.30;0.82;;;;;;;;;;5072725;28;20039;-66
2021/11/01 14:36:22;;;;;;;2.10;0.82;;;;;;;;;;5073394;28;20111;-66
2021/11/01 14:59:14;;;;;;;2.30;0.80;;;;;;;;;;5066285;28;20039;-67
2021/11/01 15:12:37;;;;;;;1.40;0.60;;;;;;;;;;5075368;28;20032;-65
2021/11/01 15:17:49;;;;;;;2.67;0.60;;;;;;;;;;5078715;28;20024;-67
2021/11/01 16:19:09;;;;;;;1.00;0.43;;;;;;;;;;5071627;28;20032;-66
2021/11/01 16:21:35;;;;;;;1.45;0.60;;;;;;;;;;5074333;28;20059;-67
2021/11/01 16:24:01;;;;;;;0.88;0.40;;;;;;;;;;5072308;28;20056;-66
2021/11/01 16:26:29;;;;;;;2.90;0.60;;;;;;;;;;5073942;28;20037;-66
2021/11/01 16:29:03;;;;;;;2.50;0.47;;;;;;;;;;5073987;28;20102;-66
2021/11/01 16:34:07;;;;;;;3.78;0.55;;;;;;;;;;5075449;28;20040;-66
2021/11/01 16:39:12;;;;;;;0.70;0.50;;;;;;;;;;5077599;28;20491;-65
2021/11/01 16:41:41;;;;;;;0.63;0.40;;;;;;;;;;5081458;28;20371;-67
2021/11/01 16:44:26;;;;;;;1.20;0.55;;;;;;;;;;5086078;28;20081;-66
2021/11/01 16:46:59;;;;;;;0.93;0.50;;;;;;;;;;5075553;28;20044;-66
2021/11/01 16:49:28;;;;;;;1.38;0.50;;;;;;;;;;5077767;28;20024;-67
2021/11/01 16:51:54;;;;;;;3.40;0.70;;;;;;;;;;5074650;28;20383;-65
2021/11/01 16:54:26;;;;;;;2.25;0.63;;;;;;;;;;5074811;28;20032;-65
2021/11/01 17:02:06;;;;;;;2.08;0.60;;;;;;;;;;5071841;28;20036;-67
2021/11/01 17:04:38;;;;;;;0.77;0.40;;;;;;;;;;5069423;28;20020;-66
2021/11/01 17:07:15;;;;;;;2.45;0.60;;;;;;;;;;5073897;28;20032;-65
2021/11/01 17:10:11;;;;;;;1.90;0.85;;;;;;;;;;5073975;28;20546;-68
2021/11/01 17:21:36;;;;;;;125.43;47.33;;;;;;;;;;5074466;28;20035;-66
2021/11/01 17:26:09;;;;;;;123.90;47.15;;;;;;;;;;5074420;28;20020;-67
2021/11/01 17:29:08;;;;;;;112.50;44.35;;;;;;;;;;5071659;28;20542;-66
2021/11/01 17:38:08;;;;;;;111.93;43.17;;;;;;;;;;5073647;28;20043;-67
2021/11/01 18:51:05;;;;;;;40.97;5.93;;;;;;;;;;5072219;28;20077;-68
2021/11/01 18:53:35;;;;;;;46.50;4.70;;;;;;;;;;5063991;28;20019;-65
2021/11/01 18:56:02;;;;;;;44.58;5.18;;;;;;;;;;5067145;28;20095;-69
2021/11/01 18:58:32;;;;;;;37.85;4.70;;;;;;;;;;5072501;28;20056;-68
2021/11/01 19:00:59;;;;;;;38.50;4.97;;;;;;;;;;5074080;28;20023;-68
2021/11/01 19:03:28;;;;;;;23.08;3.88;;;;;;;;;;5077858;28;20028;-66
2021/11/01 20:12:38;;;;;;;11.13;1.80;;;;;;;;;;5075619;28;20052;-67
2021/11/01 20:14:48;;;;;;;4.40;1.60;;;;;;;;;;5063287;28;20391;-67
2021/11/01 21:26:38;;;;;;;5.32;1.20;;;;;;;;;;5073854;28;20058;-67
2021/11/01 21:29:04;;;;;;;5.85;1.30;;;;;;;;;;5073602;28;20171;-67
2021/11/01 21:31:30;;;;;;;4.30;1.40;;;;;;;;;;5073838;28;20016;-67
2021/11/01 21:33:58;;;;;;;1.50;1.00;;;;;;;;;;5074275;28;20020;-68
2021/11/01 21:36:24;;;;;;;2.97;1.20;;;;;;;;;;5074084;28;20062;-68
2021/11/01 21:38:51;;;;;;;2.67;0.95;;;;;;;;;;5074152;28;20036;-68
2021/11/01 21:41:17;;;;;;;2.33;1.10;;;;;;;;;;5074098;28;20067;-68
2021/11/01 21:43:43;;;;;;;1.70;1.10;;;;;;;;;;5073957;28;20426;-68
2021/11/01 21:46:09;;;;;;;10.07;1.10;;;;;;;;;;5073945;28;20029;-68
2021/11/01 21:48:36;;;;;;;7.40;1.10;;;;;;;;;;5073441;28;20375;-69
2021/11/01 21:51:02;;;;;;;3.60;1.23;;;;;;;;;;5074063;28;20024;-68
2021/11/01 21:53:30;;;;;;;7.40;1.17;;;;;;;;;;5073867;28;20035;-70
2021/11/01 21:55:56;;;;;;;9.63;1.40;;;;;;;;;;5073756;28;20029;-69
2021/11/01 22:33:18;;;;;;;2.47;1.02;;;;;;;;;;5073463;28;20044;-72
2021/11/01 22:46:37;;;;;;;6.65;1.27;;;;;;;;;;5077404;28;20078;-67
2021/11/01 22:57:08;;;;;;;7.97;0.90;;;;;;;;;;5077473;28;20032;-67
2021/11/01 22:59:34;;;;;;;5.43;1.08;;;;;;;;;;5077319;28;20388;-68
2021/11/01 23:02:00;;;;;;;4.97;1.15;;;;;;;;;;5076604;28;20021;-68
2021/11/01 23:04:49;;;;;;;7.90;1.08;;;;;;;;;;5077020;28;20016;-68
2021/11/01 23:31:48;;;;;;;9.25;1.27;;;;;;;;;;5076595;28;20493;-69
2021/11/01 23:34:15;;;;;;;7.82;1.10;;;;;;;;;;5076510;28;20050;-68
2021/11/01 23:36:42;;;;;;;10.27;1.65;;;;;;;;;;5076146;28;20038;-68
2021/11/01 23:39:13;;;;;;;9.27;1.23;;;;;;;;;;5076689;28;20537;-68
2021/11/01 23:41:43;;;;;;;10.25;1.02;;;;;;;;;;5076146;28;20029;-67
2021/11/01 23:44:09;;;;;;;8.30;1.17;;;;;;;;;;5076161;28;20067;-69
2021/11/01 23:46:35;;;;;;;2.13;1.25;;;;;;;;;;5076041;28;20056;-68
2021/11/01 23:49:01;;;;;;;9.98;1.13;;;;;;;;;;5073243;28;20539;-68
2021/11/01 23:51:31;;;;;;;8.07;1.08;;;;;;;;;;5076116;28;20078;-69
2021/11/01 23:54:22;;;;;;;11.95;1.38;;;;;;;;;;5076017;28;20671;-67
2021/11/01 23:56:48;;;;;;;6.35;1.15;;;;;;;;;;5075822;28;20098;-68
2021/11/01 23:59:15;;;;;;;9.50;1.30;;;;;;;;;;5074598;28;20039;-67
